createdAt,value
2016-04-20T08:26:50.360Z,32
2016-04-20T08:27:52.331Z,44
2016-04-20T08:28:52.849Z,32
2016-04-20T08:29:52.899Z,32
2016-04-20T08:30:52.917Z,28
2016-04-20T08:31:53.013Z,28
2016-04-20T08:32:53.063Z,24
2016-04-20T08:33:53.097Z,24
2016-04-20T08:34:53.209Z,28
2016-04-20T08:35:53.165Z,24
2016-04-20T08:36:53.262Z,28
2016-04-20T08:37:53.279Z,28
2016-04-20T08:38:53.657Z,28
2016-04-20T08:39:53.410Z,24
2016-04-20T08:40:53.444Z,24
2016-04-20T08:41:53.462Z,28
2016-04-20T08:42:53.559Z,28
2016-04-20T08:43:53.624Z,72
2016-04-20T08:44:53.643Z,64
2016-04-20T08:45:53.692Z,76
2016-04-20T08:46:53.742Z,76
2016-04-20T08:47:53.807Z,48
2016-04-20T08:48:53.857Z,52
2016-04-20T08:49:54.047Z,80
2016-04-20T08:50:53.956Z,80
2016-04-20T08:51:54.005Z,80
2016-04-20T08:52:54.023Z,76
2016-04-20T08:53:54.089Z,40
2016-04-20T08:54:54.169Z,40
2016-04-20T08:55:54.188Z,56
2016-04-20T08:56:54.221Z,36
2016-04-20T08:57:54.162Z,40
2016-04-20T08:58:54.196Z,48
2016-04-20T08:59:54.433Z,36
2016-04-20T09:00:54.436Z,36
2016-04-20T09:01:54.485Z,32
2016-04-20T09:02:54.582Z,40
2016-04-20T09:03:54.787Z,64
2016-04-20T09:04:55.133Z,48
2016-04-20T09:05:54.714Z,56
2016-04-20T09:06:54.749Z,32
2016-04-20T09:07:54.782Z,28
2016-04-20T09:08:54.879Z,28
2016-04-20T09:09:54.913Z,24
2016-04-20T09:10:54.963Z,28
2016-04-20T09:11:55.043Z,24
2016-04-20T09:12:55.062Z,28
2016-04-20T09:13:55.143Z,28
2016-04-20T09:14:55.145Z,24
2016-04-20T09:15:55.195Z,24
2016-04-20T09:16:55.322Z,24
2016-04-20T09:17:55.309Z,24
2016-04-20T09:18:55.343Z,24
2016-04-20T09:19:55.565Z,24
2016-04-20T09:20:55.473Z,24
2016-04-20T09:21:55.357Z,24
2016-04-20T09:22:55.588Z,24
2016-04-20T09:23:55.638Z,24
2016-04-20T09:24:55.655Z,24
2016-04-20T09:25:55.705Z,24
2016-04-20T09:26:55.785Z,24
2016-04-20T09:27:55.804Z,64
2016-04-20T09:28:57.104Z,64
2016-04-20T09:29:55.950Z,64
2016-04-20T09:30:55.968Z,64
2016-04-20T09:31:56.034Z,64
2016-04-20T09:32:56.129Z,64
2016-04-20T09:33:56.148Z,64
2016-04-20T09:34:56.323Z,64
2016-04-20T09:35:56.247Z,64
2016-04-20T09:36:56.297Z,64
2016-04-20T09:37:56.330Z,64
2016-04-20T09:38:56.349Z,64
2016-04-20T09:39:56.414Z,64
2016-04-20T09:40:56.495Z,60
2016-04-20T09:41:56.529Z,60
2016-04-20T09:42:56.563Z,60
2016-04-20T09:43:56.644Z,64
2016-04-20T09:44:56.693Z,64
2016-04-20T09:45:56.727Z,64
2016-04-20T09:46:56.824Z,64
2016-04-20T09:47:56.858Z,64
2016-04-20T09:48:56.876Z,64
2016-04-20T09:49:57.050Z,64
2016-04-20T09:50:56.975Z,64
2016-04-20T09:51:57.071Z,64
2016-04-20T09:52:57.105Z,64
2016-04-20T09:53:57.124Z,64
2016-04-20T09:54:57.205Z,60
2016-04-20T09:55:57.269Z,64
2016-04-20T09:56:57.272Z,60
2016-04-20T09:57:57.354Z,60
2016-04-20T09:58:57.418Z,56
2016-04-20T09:59:57.437Z,56
2016-04-20T10:00:57.673Z,56
2016-04-20T10:01:57.567Z,52
2016-04-20T10:02:57.585Z,56
2016-04-20T10:03:57.681Z,52
2016-04-20T10:04:57.590Z,56
2016-04-20T10:05:57.734Z,52
2016-04-20T10:06:57.830Z,52
2016-04-20T10:07:57.833Z,24
2016-04-20T10:08:57.883Z,24
2016-04-20T10:09:59.261Z,24
2016-04-20T10:10:58.014Z,24
2016-04-20T10:11:57.875Z,32
2016-04-20T10:12:57.972Z,28
2016-04-20T10:13:58.193Z,24
2016-04-20T10:14:58.196Z,24
2016-04-20T10:15:58.292Z,24
2016-04-20T10:16:58.420Z,24
2016-04-20T10:17:58.376Z,28
2016-04-20T10:18:58.394Z,36
2016-04-20T10:19:58.491Z,48
2016-04-20T10:20:58.525Z,44
2016-04-20T10:21:58.543Z,48
2016-04-20T10:22:58.592Z,44
2016-04-20T10:23:58.689Z,44
2016-04-20T10:24:58.722Z,44
2016-04-20T10:25:58.741Z,44
2016-04-20T10:26:58.837Z,44
2016-04-20T10:27:58.887Z,40
2016-04-20T10:28:58.905Z,40
2016-04-20T10:29:59.518Z,44
2016-04-20T10:30:59.004Z,44
2016-04-20T10:31:59.085Z,44
2016-04-20T10:32:59.135Z,40
2016-04-20T10:33:59.154Z,44
2016-04-20T10:34:59.235Z,40
2016-04-20T10:35:59.299Z,44
2016-04-20T10:36:59.301Z,40
2016-04-20T10:37:59.367Z,40
2016-04-20T10:38:59.448Z,40
2016-04-20T10:39:59.466Z,40
2016-04-20T10:40:59.516Z,40
2016-04-20T10:41:59.581Z,36
2016-04-20T10:42:59.631Z,40
2016-04-20T10:43:59.695Z,36
2016-04-20T10:44:59.714Z,40
2016-04-20T10:45:59.779Z,36
2016-04-20T10:46:59.861Z,36
2016-04-20T10:47:59.863Z,40
2016-04-20T10:48:59.912Z,36
2016-04-20T10:49:59.993Z,36
2016-04-20T10:50:59.902Z,36
2016-04-20T10:52:00.061Z,32
2016-04-20T10:53:00.157Z,36
2016-04-20T10:54:00.050Z,36
2016-04-20T10:55:00.241Z,32
2016-04-20T10:56:00.275Z,36
2016-04-20T10:57:00.340Z,36
2016-04-20T10:58:00.405Z,32
2016-04-20T10:59:00.438Z,36
2016-04-20T11:00:00.457Z,32
2016-04-20T11:01:00.569Z,32
2016-04-20T11:02:00.572Z,32
2016-04-20T11:03:00.622Z,36
2016-04-20T11:04:00.702Z,32
2016-04-20T11:05:00.752Z,32
2016-04-20T11:06:00.786Z,16
2016-04-20T11:07:00.867Z,20
2016-04-20T11:08:00.917Z,36
2016-04-20T11:09:00.935Z,32
2016-04-20T11:10:00.984Z,36
2016-04-20T11:11:01.065Z,20
2016-04-20T11:12:01.084Z,16
2016-04-20T11:13:01.134Z,20
2016-04-20T11:14:01.229Z,24
2016-04-20T11:15:01.248Z,24
2016-04-20T11:16:01.281Z,16
2016-04-20T11:17:01.394Z,16
2016-04-20T11:18:01.444Z,16
2016-04-20T11:19:01.447Z,16
2016-04-20T11:20:01.528Z,20
2016-04-20T11:21:01.545Z,28
2016-04-20T11:22:01.642Z,28
2016-04-20T11:23:01.644Z,28
2016-04-20T11:24:02.366Z,28
2016-04-20T11:25:01.775Z,28
2016-04-20T11:26:01.808Z,24
2016-04-20T11:27:01.843Z,24
2016-04-20T11:28:01.923Z,28
2016-04-20T11:29:01.957Z,28
2016-04-20T11:30:02.007Z,24
2016-04-20T11:31:02.104Z,24
2016-04-20T11:32:02.138Z,24
2016-04-20T11:33:02.156Z,24
2016-04-20T11:34:02.205Z,28
2016-04-20T11:35:02.255Z,28
2016-04-20T11:36:02.335Z,24
2016-04-20T11:37:02.370Z,24
2016-04-20T11:38:02.404Z,24
2016-04-20T11:39:02.485Z,24
2016-04-20T11:40:02.534Z,28
2016-04-20T11:41:02.552Z,24
2016-04-20T11:42:02.633Z,24
2016-04-20T11:43:02.698Z,24
2016-04-20T11:44:02.700Z,24
2016-04-20T11:45:02.782Z,24
2016-04-20T11:46:02.831Z,20
2016-04-20T11:47:02.880Z,24
2016-04-20T11:48:02.946Z,24
2016-04-20T11:49:02.964Z,24
2016-04-20T11:50:03.014Z,24
2016-04-20T11:51:03.095Z,24
2016-04-20T11:52:03.097Z,20
2016-04-20T11:53:03.163Z,16
2016-04-20T11:54:03.244Z,20
2016-04-20T11:55:03.277Z,20
2016-04-20T11:56:03.311Z,20
2016-04-20T11:57:03.407Z,20
2016-04-20T11:58:03.301Z,20
2016-04-20T11:59:03.492Z,24
2016-04-20T12:00:03.525Z,24
2016-04-20T12:01:03.560Z,20
2016-04-20T12:02:03.655Z,20
2016-04-20T12:03:03.689Z,20
2016-04-20T12:04:03.723Z,20
2016-04-20T12:05:03.805Z,20
2016-04-20T12:06:03.854Z,20
2016-04-20T12:07:03.872Z,20
2016-04-20T12:08:03.953Z,20
2016-04-20T12:09:04.018Z,20
2016-04-20T12:10:04.020Z,16
2016-04-20T12:11:04.132Z,20
2016-04-20T12:12:04.121Z,20
2016-04-20T12:13:04.217Z,20
2016-04-20T12:14:04.235Z,20
2016-04-20T12:15:04.268Z,20
2016-04-20T12:16:04.364Z,20
2016-04-20T12:17:04.399Z,20
2016-04-20T12:18:04.418Z,16
2016-04-20T12:19:04.514Z,16
2016-04-20T12:20:04.564Z,16
2016-04-20T12:21:04.581Z,16
2016-04-20T12:22:04.678Z,20
2016-04-20T12:23:04.728Z,20
2016-04-20T12:24:04.730Z,20
2016-04-20T12:25:04.795Z,16
2016-04-20T12:26:04.829Z,16
2016-04-20T12:27:05.050Z,16
2016-04-20T12:28:04.975Z,16
2016-04-20T12:29:04.978Z,16
2016-04-20T12:30:05.058Z,16
2016-04-20T12:31:05.156Z,16
2016-04-20T12:32:05.142Z,16
2016-04-20T12:33:05.191Z,16
2016-04-20T12:34:05.288Z,16
2016-04-20T12:35:05.291Z,16
2016-04-20T12:36:05.341Z,16
2016-04-20T12:37:05.422Z,16
2016-04-20T12:38:05.455Z,12
2016-04-20T12:39:05.537Z,12
2016-04-20T12:40:05.540Z,12
2016-04-20T12:41:05.605Z,12
2016-04-20T12:42:05.685Z,16
2016-04-20T12:43:05.718Z,16
2016-04-20T12:44:05.753Z,16
2016-04-20T12:45:05.834Z,16
2016-04-20T12:46:05.868Z,16
2016-04-20T12:47:05.902Z,12
2016-04-20T12:48:05.982Z,12
2016-04-20T12:49:06.032Z,12
2016-04-20T12:50:06.034Z,12
2016-04-20T12:51:06.131Z,12
2016-04-20T12:52:06.181Z,12
2016-04-20T12:53:06.199Z,12
2016-04-20T12:54:06.295Z,12
2016-04-20T12:55:06.361Z,12
2016-04-20T12:56:06.348Z,12
2016-04-20T12:57:06.413Z,12
2016-04-20T12:58:06.494Z,12
2016-04-20T12:59:06.512Z,12
2016-04-20T13:00:06.561Z,12
2016-04-20T13:01:06.641Z,12
2016-04-20T13:02:06.660Z,12
2016-04-20T13:03:06.742Z,12
2016-04-20T13:04:06.775Z,12
2016-04-20T13:05:06.810Z,12
2016-04-20T13:06:06.905Z,12
2016-04-20T13:07:06.940Z,12
2016-04-20T13:08:06.974Z,12
2016-04-20T13:09:07.055Z,12
2016-04-20T13:10:07.104Z,16
2016-04-20T13:11:07.122Z,16
2016-04-20T13:12:07.203Z,16
2016-04-20T13:13:07.581Z,16
2016-04-20T13:14:07.802Z,16
2016-04-20T13:15:07.337Z,16
2016-04-20T13:16:07.354Z,16
2016-04-20T13:17:07.451Z,16
2016-04-20T13:18:07.501Z,12
2016-04-20T13:19:07.519Z,12
2016-04-20T13:20:07.615Z,12
2016-04-20T13:21:07.650Z,16
2016-04-20T13:22:07.683Z,16
2016-04-20T13:23:07.764Z,16
2016-04-20T13:24:07.797Z,16
2016-04-20T13:25:07.831Z,16
2016-04-20T13:26:07.881Z,16
2016-04-20T13:27:07.962Z,16
2016-04-20T13:28:07.981Z,16
2016-04-20T13:29:08.046Z,16
2016-04-20T13:30:08.064Z,16
2016-04-20T13:31:08.160Z,16
2016-04-20T13:32:08.211Z,16
2016-04-20T13:33:08.228Z,16
2016-04-20T13:34:08.310Z,16
2016-04-20T13:35:08.358Z,16
2016-04-20T13:36:08.393Z,16
2016-04-20T13:37:08.457Z,16
2016-04-20T13:38:08.524Z,20
2016-04-20T13:39:08.526Z,20
2016-04-20T13:40:08.591Z,20
2016-04-20T13:41:08.657Z,16
2016-04-20T13:42:08.690Z,16
2016-04-20T13:43:08.770Z,16
2016-04-20T13:44:08.790Z,16
2016-04-20T13:45:08.839Z,16
2016-04-20T13:46:08.920Z,20
2016-04-20T13:47:08.937Z,20
2016-04-20T13:48:08.988Z,20
2016-04-20T13:49:09.068Z,20
2016-04-20T13:50:09.118Z,20
2016-04-20T13:51:09.026Z,20
2016-04-20T13:52:09.218Z,16
2016-04-20T13:53:09.267Z,16
2016-04-20T13:54:09.331Z,20
2016-04-20T13:55:09.334Z,20
2016-04-20T13:56:09.384Z,20
2016-04-20T13:57:09.480Z,20
2016-04-20T13:58:09.515Z,20
2016-04-20T13:59:09.533Z,20
2016-04-20T14:00:09.645Z,20
2016-04-20T14:01:09.648Z,20
2016-04-20T14:02:09.697Z,20
2016-04-20T14:03:09.778Z,24
2016-04-20T14:04:09.843Z,24
2016-04-20T14:05:12.314Z,24
2016-04-20T14:06:10.066Z,20
2016-04-20T14:07:09.961Z,20
2016-04-20T14:08:10.026Z,20
2016-04-20T14:09:10.060Z,20
2016-04-20T14:10:10.094Z,20
2016-04-20T14:11:10.174Z,20
2016-04-20T14:12:10.224Z,24
2016-04-20T14:13:10.243Z,24
2016-04-20T14:14:10.324Z,24
2016-04-20T14:15:10.388Z,24
2016-04-20T14:16:10.390Z,20
2016-04-20T14:17:10.456Z,20
2016-04-20T14:18:10.537Z,20
2016-04-20T14:19:10.540Z,20
2016-04-20T14:20:10.637Z,24
2016-04-20T14:21:10.654Z,24
2016-04-20T14:22:10.549Z,24
2016-04-20T14:23:10.801Z,24
2016-04-20T14:24:10.820Z,24
2016-04-20T14:25:10.838Z,24
2016-04-20T14:26:10.951Z,24
2016-04-20T14:27:10.968Z,24
2016-04-20T14:28:11.002Z,24
2016-04-20T14:29:11.084Z,24
2016-04-20T14:30:11.133Z,24
2016-04-20T14:31:11.151Z,24
2016-04-20T14:32:11.247Z,24
2016-04-20T14:33:11.297Z,24
2016-04-20T14:34:11.315Z,24
2016-04-20T14:35:11.396Z,24
2016-04-20T14:36:11.352Z,24
2016-04-20T14:37:11.464Z,24
2016-04-20T14:38:11.561Z,24
2016-04-20T14:39:11.626Z,24
2016-04-20T14:40:11.613Z,24
2016-04-20T14:41:11.678Z,24
2016-04-20T14:42:11.744Z,24
2016-04-20T14:43:11.761Z,28
2016-04-20T14:44:11.827Z,28
2016-04-20T14:45:11.892Z,28
2016-04-20T14:46:11.926Z,24
2016-04-20T14:47:12.007Z,24
2016-04-20T14:48:13.635Z,24
2016-04-20T14:49:12.059Z,24
2016-04-20T14:50:12.155Z,24
2016-04-20T14:51:12.252Z,24
2016-04-20T14:52:12.223Z,24
2016-04-20T14:53:12.304Z,28
2016-04-20T14:54:12.354Z,28
2016-04-20T14:55:12.372Z,28
2016-04-20T14:56:12.468Z,28
2016-04-20T14:57:12.502Z,28
2016-04-20T14:58:12.537Z,28
2016-04-20T14:59:12.602Z,28
2016-04-20T15:00:12.620Z,28
2016-04-20T15:01:12.716Z,28
2016-04-20T15:02:12.750Z,28
2016-04-20T15:03:12.768Z,28
2016-04-20T15:04:12.864Z,28
2016-04-20T15:05:12.945Z,28
2016-04-20T15:06:12.792Z,28
2016-04-20T15:07:12.998Z,28
2016-04-20T15:08:13.064Z,28
2016-04-20T15:09:13.067Z,28
2016-04-20T15:10:13.131Z,28
2016-04-20T15:11:13.197Z,28
2016-04-20T15:12:13.277Z,28
2016-04-20T15:13:13.311Z,28
2016-04-20T15:14:13.329Z,28
2016-04-20T15:15:13.410Z,28
2016-04-20T15:16:13.460Z,28
2016-04-20T15:17:13.477Z,28
2016-04-20T15:18:13.558Z,28
2016-04-20T15:19:13.624Z,28
2016-04-20T15:20:13.627Z,28
2016-04-20T15:21:13.707Z,28
2016-04-20T15:22:13.788Z,28
2016-04-20T15:23:13.791Z,28
2016-04-20T15:24:13.840Z,28
2016-04-20T15:25:13.921Z,28
2016-04-20T15:26:13.971Z,28
2016-04-20T15:27:13.989Z,28
2016-04-20T15:28:14.071Z,28
2016-04-20T15:29:14.120Z,28
2016-04-20T15:30:14.138Z,24
2016-04-20T15:31:14.203Z,28
2016-04-20T15:32:14.268Z,24
2016-04-20T15:33:14.287Z,24
2016-04-20T15:34:14.336Z,24
2016-04-20T15:35:14.432Z,24
2016-04-20T15:36:14.455Z,24
2016-04-20T15:37:14.520Z,24
2016-04-20T15:38:14.539Z,24
2016-04-20T15:39:14.619Z,24
2016-04-20T15:40:14.686Z,28
2016-04-20T15:41:14.688Z,28
2016-04-20T15:42:14.769Z,28
2016-04-20T15:43:14.834Z,28
2016-04-20T15:44:14.853Z,28
2016-04-20T15:45:14.902Z,28
2016-04-20T15:46:14.983Z,24
2016-04-20T15:47:15.002Z,24
2016-04-20T15:48:15.051Z,24
2016-04-20T15:49:15.116Z,24
2016-04-20T15:50:15.166Z,24
2016-04-20T15:51:15.230Z,24
2016-04-20T15:52:15.249Z,24
2016-04-20T15:53:15.299Z,24
2016-04-20T15:54:15.395Z,24
2016-04-20T15:55:15.429Z,24
2016-04-20T15:56:15.446Z,24
2016-04-20T15:57:15.543Z,24
2016-04-20T15:58:15.599Z,24
2016-04-20T15:59:15.674Z,24
2016-04-20T16:00:15.813Z,24
2016-04-20T16:01:15.904Z,24
2016-04-20T16:02:15.979Z,20
2016-04-20T16:03:16.052Z,20
2016-04-20T16:04:16.102Z,20
2016-04-20T16:06:56.707Z,20
2016-04-20T16:07:56.691Z,24
2016-04-20T16:08:56.636Z,24
2016-04-20T16:09:56.864Z,24
2016-04-20T16:10:56.855Z,20
2016-04-20T16:11:56.943Z,20
2016-04-20T16:12:57.011Z,20
2016-04-20T16:13:57.016Z,20
2016-04-20T16:14:57.115Z,20
2016-04-20T16:15:57.182Z,20
2016-04-20T16:16:57.185Z,24
2016-04-20T16:17:57.253Z,20
2016-04-20T16:18:57.335Z,20
2016-04-20T16:19:57.338Z,20
2016-04-20T16:20:57.404Z,20
2016-04-20T16:21:57.329Z,20
2016-04-20T16:22:57.505Z,20
2016-04-20T16:23:57.554Z,20
2016-04-20T16:24:57.620Z,16
2016-04-20T16:25:57.669Z,16
2016-04-20T16:26:57.688Z,16
2016-04-20T16:27:57.785Z,20
2016-04-20T16:28:57.788Z,20
2016-04-20T16:29:57.885Z,16
2016-04-20T16:30:57.934Z,16
2016-04-20T16:31:57.952Z,16
2016-04-20T16:32:58.080Z,16
2016-04-20T16:33:58.098Z,16
2016-04-20T16:34:58.101Z,20
2016-04-20T16:35:58.166Z,20
2016-04-20T16:36:58.246Z,20
2016-04-20T16:37:58.265Z,16
2016-04-20T16:38:58.330Z,16
2016-04-20T16:39:58.380Z,16
2016-04-20T16:40:58.398Z,16
2016-04-20T16:41:58.495Z,16
2016-04-20T16:42:58.513Z,20
2016-04-20T16:43:58.609Z,16
2016-04-20T16:44:58.643Z,16
2016-04-20T16:45:58.646Z,16
2016-04-20T16:46:58.711Z,12
2016-04-20T16:47:58.808Z,16
2016-04-20T16:48:58.811Z,12
2016-04-20T16:49:58.845Z,16
2016-04-20T16:50:58.942Z,16
2016-04-20T16:51:58.975Z,16
2016-04-20T16:52:59.009Z,16
2016-04-20T16:53:59.105Z,16
2016-04-20T16:54:59.139Z,12
2016-04-20T16:55:58.455Z,12
2016-04-20T16:56:58.472Z,12
2016-04-20T16:57:59.272Z,12
2016-04-20T16:58:59.338Z,16
2016-04-20T16:59:59.356Z,16
2016-04-20T17:00:59.405Z,12
2016-04-20T17:01:59.502Z,12
2016-04-20T17:02:59.551Z,12
2016-04-20T17:03:59.569Z,12
2016-04-20T17:04:59.666Z,12
2016-04-20T17:05:59.700Z,12
2016-04-20T17:06:59.734Z,8
2016-04-20T17:07:59.799Z,12
2016-04-20T17:08:59.833Z,12
2016-04-20T17:09:59.913Z,12
2016-04-20T17:10:59.948Z,4
2016-04-20T17:11:59.966Z,8
2016-04-20T17:13:00.063Z,8
2016-04-20T17:14:00.112Z,8
2016-04-20T17:15:00.115Z,12
2016-04-20T17:16:00.196Z,12
2016-04-20T17:17:00.262Z,12
2016-04-20T17:18:00.264Z,12
2016-04-20T17:19:00.328Z,8
2016-04-20T17:20:00.394Z,8
2016-04-20T17:21:00.459Z,8
2016-04-20T17:22:00.493Z,8
2016-04-20T17:23:00.559Z,8
2016-04-20T17:24:00.608Z,8
2016-04-20T17:25:00.689Z,8
2016-04-20T17:26:00.676Z,8
2016-04-20T17:27:00.756Z,8
2016-04-20T17:28:00.836Z,8
2016-04-20T17:29:00.089Z,12
2016-04-20T17:30:00.890Z,8
2016-04-20T17:31:00.970Z,8
2016-04-20T17:32:01.004Z,8
2016-04-20T17:33:01.086Z,8
2016-04-20T17:34:01.103Z,8
2016-04-20T17:35:01.185Z,8
2016-04-20T17:36:01.250Z,8
2016-04-20T17:37:01.252Z,8
2016-04-20T17:38:01.333Z,8
2016-04-20T17:39:01.382Z,4
2016-04-20T17:40:01.416Z,4
2016-04-20T17:41:01.451Z,8
2016-04-20T17:42:01.547Z,8
2016-04-20T17:43:01.550Z,8
2016-04-20T17:44:01.443Z,8
2016-04-20T17:45:01.696Z,8
2016-04-20T17:46:01.699Z,8
2016-04-20T17:47:01.795Z,4
2016-04-20T17:48:01.813Z,4
2016-04-20T17:49:01.862Z,4
2016-04-20T17:50:01.929Z,4
2016-04-20T17:51:01.978Z,4
2016-04-20T17:52:02.059Z,4
2016-04-20T17:53:01.967Z,8
2016-04-20T17:54:06.976Z,8
2016-04-20T17:55:02.151Z,4
2016-04-20T17:56:02.215Z,4
2016-04-20T17:57:02.296Z,4
2016-04-20T17:58:02.331Z,4
2016-04-20T17:59:01.645Z,4
2016-04-20T18:00:02.461Z,4
2016-04-20T18:01:02.478Z,4
2016-04-20T18:02:02.528Z,4
2016-04-20T18:03:02.594Z,0
2016-04-20T18:04:02.611Z,0
2016-04-20T18:05:02.678Z,4
2016-04-20T18:06:02.742Z,4
2016-04-20T18:07:02.634Z,4
2016-04-20T18:08:02.808Z,4
2016-04-20T18:09:02.906Z,4
2016-04-20T18:10:02.939Z,4
2016-04-20T18:11:02.269Z,0
2016-04-20T18:12:03.039Z,0
2016-04-20T18:13:03.056Z,0
2016-04-20T18:14:03.152Z,0
2016-04-20T18:15:03.202Z,0
2016-04-20T18:16:03.220Z,4
2016-04-20T18:17:03.352Z,4
2016-04-20T18:18:03.387Z,4
2016-04-20T18:19:03.389Z,4
2016-04-20T18:20:03.453Z,4
2016-04-20T18:21:03.535Z,0
2016-04-20T18:22:03.292Z,0
2016-04-20T18:23:03.608Z,0
2016-04-20T18:24:03.642Z,0
2016-04-20T18:25:03.706Z,0
2016-04-20T18:26:03.771Z,0
2016-04-20T18:27:03.790Z,0
2016-04-20T18:28:03.855Z,0
2016-04-20T18:29:03.920Z,0
2016-04-20T18:30:03.923Z,0
2016-04-20T18:31:03.988Z,0
2016-04-20T18:32:03.319Z,0
2016-04-20T18:33:04.088Z,0
2016-04-20T18:34:04.137Z,0
2016-04-20T18:35:04.218Z,0
2016-04-20T18:36:04.268Z,0
2016-04-20T18:37:04.192Z,0
2016-04-20T18:38:04.335Z,0
2016-04-20T18:39:04.416Z,0
2016-04-20T18:40:03.716Z,0
2016-04-20T18:41:04.485Z,0
2016-04-20T18:42:04.409Z,0
2016-04-20T18:43:04.630Z,0
2016-04-20T18:44:04.664Z,0
2016-04-20T18:45:04.682Z,0
2016-04-20T18:46:04.778Z,0
2016-04-20T18:47:04.798Z,0
2016-04-20T18:48:04.721Z,0
2016-04-20T18:49:04.803Z,0
2016-04-20T18:50:04.961Z,0
2016-04-20T18:51:05.042Z,0
2016-04-20T18:52:05.060Z,0
2016-04-20T18:53:05.095Z,0
2016-04-20T18:54:05.191Z,0
2016-04-20T18:55:05.209Z,0
2016-04-20T18:56:05.243Z,0
2016-04-20T18:57:05.355Z,0
2016-04-20T18:58:05.373Z,0
2016-04-20T18:59:05.408Z,0
2016-04-20T19:00:05.488Z,0
2016-04-20T19:01:04.820Z,0
2016-04-20T19:02:05.556Z,0
2016-04-20T19:03:05.636Z,0
2016-04-20T19:04:04.905Z,0
2016-04-20T19:05:05.752Z,0
2016-04-20T19:06:05.802Z,0
2016-04-20T19:07:05.539Z,0
2016-04-20T19:08:05.884Z,0
2016-04-20T19:09:05.949Z,0
2016-04-20T19:10:05.968Z,0
2016-04-20T19:11:06.033Z,0
2016-04-20T19:12:06.114Z,0
2016-04-20T19:13:06.133Z,0
2016-04-20T19:14:06.182Z,0
2016-04-20T19:15:06.248Z,0
2016-04-20T19:16:06.313Z,0
2016-04-20T19:17:06.362Z,0
2016-04-20T19:18:06.380Z,0
2016-04-20T19:19:06.429Z,0
2016-04-20T19:20:06.511Z,0
2016-04-20T19:21:06.373Z,0
2016-04-20T19:22:06.579Z,0
2016-04-20T19:23:06.659Z,0
2016-04-20T19:24:06.725Z,0
2016-04-20T19:25:06.727Z,0
2016-04-20T19:26:06.808Z,0
2016-04-20T19:27:06.873Z,0
2016-04-20T19:28:06.908Z,0
2016-04-20T19:29:06.925Z,0
2016-04-20T19:30:06.834Z,0
2016-04-20T19:31:07.087Z,0
2016-04-20T19:32:07.074Z,0
2016-04-20T19:33:07.140Z,0
2016-04-20T19:34:07.220Z,0
2016-04-20T19:35:07.238Z,0
2016-04-20T19:36:07.272Z,0
2016-04-20T19:37:07.369Z,0
2016-04-20T19:38:07.402Z,0
2016-04-20T19:39:07.453Z,0
2016-04-20T19:40:07.518Z,0
2016-04-20T19:41:07.583Z,0
2016-04-20T19:42:07.586Z,0
2016-04-20T19:43:07.651Z,0
2016-04-20T19:44:07.716Z,0
2016-04-20T19:45:07.734Z,0
2016-04-20T19:46:07.784Z,0
2016-04-20T19:47:07.880Z,0
2016-04-20T19:48:07.915Z,0
2016-04-20T19:49:07.948Z,4
2016-04-20T19:50:08.029Z,4
2016-04-20T19:51:08.079Z,4
2016-04-20T19:52:08.112Z,4
2016-04-20T19:53:08.209Z,4
2016-04-20T19:54:08.211Z,4
2016-04-20T19:55:08.276Z,4
2016-04-20T19:56:08.295Z,4
2016-04-20T19:57:08.361Z,4
2016-04-20T19:58:08.441Z,4
2016-04-20T19:59:08.459Z,4
2016-04-20T20:00:08.494Z,4
2016-04-20T20:01:08.590Z,4
2016-04-20T20:02:08.639Z,4
2016-04-20T20:03:08.658Z,4
2016-04-20T20:04:08.738Z,4
2016-04-20T20:05:08.789Z,4
2016-04-20T20:06:08.806Z,4
2016-04-20T20:07:08.872Z,4
2016-04-20T20:08:08.921Z,4
2016-04-20T20:09:09.018Z,4
2016-04-20T20:10:09.035Z,4
2016-04-20T20:11:09.054Z,4
2016-04-20T20:12:09.136Z,4
2016-04-20T20:13:09.215Z,0
2016-04-20T20:14:09.218Z,4
2016-04-20T20:15:09.315Z,4
2016-04-20T20:16:09.380Z,4
2016-04-20T20:17:09.352Z,4
2016-04-20T20:18:09.448Z,4
2016-04-20T20:19:09.498Z,4
2016-04-20T20:20:09.532Z,4
2016-04-20T20:21:09.612Z,4
2016-04-20T20:22:09.500Z,4
2016-04-20T20:23:09.511Z,4
2016-04-20T20:24:09.748Z,4
2016-04-20T20:25:09.766Z,4
2016-04-20T20:26:09.831Z,4
2016-04-20T20:27:09.911Z,4
2016-04-20T20:28:09.947Z,4
2016-04-20T20:29:09.980Z,4
2016-04-20T20:30:10.060Z,4
2016-04-20T20:31:10.111Z,4
2016-04-20T20:32:10.160Z,4
2016-04-20T20:33:10.178Z,4
2016-04-20T20:34:10.227Z,4
2016-04-20T20:35:10.340Z,4
2016-04-20T20:36:10.327Z,4
2016-04-20T20:37:10.376Z,0
2016-04-20T20:38:10.458Z,0
2016-04-20T20:39:10.491Z,0
2016-04-20T20:40:10.524Z,0
2016-04-20T20:41:10.621Z,0
2016-04-20T20:42:10.655Z,0
2016-04-20T20:43:10.673Z,0
2016-04-20T20:44:10.785Z,0
2016-04-20T20:45:10.773Z,0
2016-04-20T20:46:10.869Z,0
2016-04-20T20:47:10.919Z,0
2016-04-20T20:48:10.937Z,0
2016-04-20T20:49:11.017Z,0
2016-04-20T20:50:11.068Z,0
2016-04-20T20:51:11.086Z,0
2016-04-20T20:52:11.166Z,0
2016-04-20T20:53:11.231Z,0
2016-04-20T20:54:11.235Z,0
2016-04-20T20:55:11.300Z,0
2016-04-20T20:56:11.381Z,0
2016-04-20T20:57:11.399Z,0
2016-04-20T20:58:11.480Z,0
2016-04-20T20:59:11.497Z,0
2016-04-20T21:00:11.564Z,0
2016-04-20T21:01:10.878Z,0
2016-04-20T21:02:10.929Z,0
2016-04-20T21:03:11.697Z,0
2016-04-20T21:04:11.779Z,0
2016-04-20T21:05:11.796Z,0
2016-04-20T21:06:11.846Z,0
2016-04-20T21:07:11.942Z,0
2016-04-20T21:08:11.976Z,0
2016-04-20T21:09:12.010Z,0
2016-04-20T21:10:12.091Z,0
2016-04-20T21:11:12.142Z,0
2016-04-20T21:12:12.189Z,0
2016-04-20T21:13:12.224Z,0
2016-04-20T21:14:12.258Z,0
2016-04-20T21:15:12.355Z,0
2016-04-20T21:16:12.373Z,0
2016-04-20T21:17:12.407Z,0
2016-04-20T21:18:12.488Z,0
2016-04-20T21:19:12.522Z,0
2016-04-20T21:20:12.555Z,0
2016-04-20T21:21:12.730Z,0
2016-04-20T21:22:12.779Z,0
2016-04-20T21:23:12.735Z,0
2016-04-20T21:24:12.832Z,0
2016-04-20T21:25:12.882Z,0
2016-04-20T21:26:12.868Z,0
2016-04-20T21:27:12.918Z,0
2016-04-20T21:28:13.015Z,0
2016-04-20T21:29:13.018Z,0
2016-04-20T21:30:13.082Z,0
2016-04-20T21:31:13.179Z,0
2016-04-20T21:32:13.182Z,0
2016-04-20T21:33:13.215Z,0
2016-04-20T21:34:13.312Z,0
2016-04-20T21:35:12.596Z,0
2016-04-20T21:36:13.411Z,0
2016-04-20T21:37:13.429Z,0
2016-04-20T21:38:13.495Z,0
2016-04-20T21:39:13.576Z,0
2016-04-20T21:40:13.579Z,0
2016-04-20T21:41:13.628Z,0
2016-04-20T21:42:13.724Z,0
2016-04-20T21:43:13.727Z,0
2016-04-20T21:44:13.792Z,0
2016-04-20T21:45:13.873Z,0
2016-04-20T21:46:13.906Z,0
2016-04-20T21:47:13.925Z,0
2016-04-20T21:48:14.036Z,0
2016-04-20T21:49:14.024Z,0
2016-04-20T21:50:14.136Z,0
2016-04-20T21:51:14.155Z,0
2016-04-20T21:52:14.189Z,0
2016-04-20T21:53:14.285Z,0
2016-04-20T21:54:14.303Z,0
2016-04-20T21:55:14.353Z,0
2016-04-20T21:56:14.418Z,0
2016-04-20T21:57:14.483Z,0
2016-04-20T21:58:14.501Z,0
2016-04-20T21:59:14.566Z,0
2016-04-20T22:00:14.632Z,0
2016-04-20T22:01:14.681Z,0
2016-04-20T22:02:14.763Z,0
2016-04-20T22:03:14.123Z,0
2016-04-20T22:04:14.830Z,0
2016-04-20T22:05:14.896Z,0
2016-04-20T22:06:14.898Z,0
2016-04-20T22:07:14.979Z,0
2016-04-20T22:08:15.028Z,0
2016-04-20T22:09:15.062Z,0
2016-04-20T22:10:15.143Z,0
2016-04-20T22:11:15.208Z,0
2016-04-20T22:12:15.226Z,0
2016-04-20T22:13:14.510Z,0
2016-04-20T22:14:15.436Z,0
2016-04-20T22:15:15.203Z,0
2016-04-20T22:16:15.456Z,0
2016-04-20T22:17:15.458Z,0
2016-04-20T22:18:15.509Z,0
2016-04-20T22:19:15.620Z,0
2016-04-20T22:20:15.623Z,0
2016-04-20T22:21:15.688Z,0
2016-04-20T22:22:15.753Z,0
2016-04-20T22:23:15.802Z,0
2016-04-20T22:24:15.821Z,0
2016-04-20T22:25:15.919Z,0
2016-04-20T22:26:15.968Z,0
2016-04-20T22:27:15.986Z,0
2016-04-20T22:28:16.019Z,0
2016-04-20T22:29:16.069Z,0
2016-04-20T22:30:16.166Z,0
2016-04-20T22:31:16.184Z,0
2016-04-20T22:32:16.234Z,0
2016-04-20T22:33:16.314Z,0
2016-04-20T22:34:15.598Z,0
2016-04-20T22:35:16.398Z,0
2016-04-20T22:36:16.494Z,0
2016-04-20T22:37:16.529Z,0
2016-04-20T22:38:16.546Z,0
2016-04-20T22:39:16.612Z,0
2016-04-20T22:40:16.631Z,0
2016-04-20T22:41:16.726Z,0
2016-04-20T22:42:16.761Z,0
2016-04-20T22:43:16.778Z,0
2016-04-20T22:44:16.719Z,0
2016-04-20T22:45:16.909Z,0
2016-04-20T22:46:16.943Z,0
2016-04-20T22:47:17.040Z,0
2016-04-20T22:48:17.072Z,0
2016-04-20T22:49:17.092Z,0
2016-04-20T22:50:17.158Z,0
2016-04-20T22:51:17.238Z,0
2016-04-20T22:52:17.241Z,0
2016-04-20T22:53:17.336Z,0
2016-04-20T22:54:17.355Z,0
2016-04-20T22:55:17.405Z,0
2016-04-20T22:56:17.501Z,0